createdAt,value
2018-05-05T00:01:34.735Z,99409.25
2018-05-05T00:04:03.026Z,99396.73
2018-05-05T00:06:31.294Z,99392.01
2018-05-05T00:08:59.605Z,99394.44
2018-05-05T00:11:27.860Z,99392.63
2018-05-05T00:13:56.137Z,99396.46
2018-05-05T00:16:24.708Z,99401.20
2018-05-05T00:18:52.980Z,99404.86
2018-05-05T00:21:21.249Z,99400.73
2018-05-05T00:23:49.618Z,99399.66
2018-05-05T00:26:17.980Z,99394.41
2018-05-05T00:28:46.218Z,99401.53
2018-05-05T00:31:14.510Z,99393.27
2018-05-05T00:33:42.782Z,99401.02
2018-05-05T00:36:11.134Z,99397.07
2018-05-05T00:38:39.373Z,99388.06
2018-05-05T00:41:07.662Z,99387.62
2018-05-05T00:43:35.950Z,99375.31
2018-05-05T00:46:04.227Z,99375.91
2018-05-05T00:48:32.501Z,99376.89
2018-05-05T00:51:00.802Z,99372.67
2018-05-05T00:53:29.046Z,99326.97
2018-05-05T00:55:57.414Z,99377.13
2018-05-05T00:58:25.689Z,99377.91
2018-05-05T01:00:53.983Z,99388.98
2018-05-05T01:03:22.250Z,99389.13
2018-05-05T01:05:50.630Z,99388.99
2018-05-05T01:08:18.943Z,99388.47
2018-05-05T01:10:47.251Z,99389.70
2018-05-05T01:13:15.552Z,99388.44
2018-05-05T01:15:43.842Z,99387.77
2018-05-05T01:18:12.109Z,99392.11
2018-05-05T01:20:40.382Z,99380.62
2018-05-05T01:23:08.981Z,99380.66
2018-05-05T01:25:42.025Z,99382.19
2018-05-05T01:28:10.535Z,99387.89
2018-05-05T01:30:38.789Z,99379.30
2018-05-05T01:33:07.111Z,99380.97
2018-05-05T01:35:35.369Z,99372.52
2018-05-05T01:38:03.753Z,99373.72
2018-05-05T01:40:32.023Z,99380.38
2018-05-05T01:43:00.334Z,99374.30
2018-05-05T01:45:28.601Z,99379.41
2018-05-05T01:47:56.883Z,99378.86
2018-05-05T01:50:25.212Z,99379.27
2018-05-05T01:52:53.550Z,99375.42
2018-05-05T01:55:22.406Z,99379.17
2018-05-05T01:57:50.749Z,99369.72
2018-05-05T02:00:19.053Z,99374.63
2018-05-05T02:02:47.352Z,99375.69
2018-05-05T02:05:15.618Z,99375.78
2018-05-05T02:07:43.928Z,99374.01
2018-05-05T02:10:12.274Z,99376.69
2018-05-05T02:12:40.545Z,99371.53
2018-05-05T02:15:08.891Z,99361.94
2018-05-05T02:17:37.201Z,99367.55
2018-05-05T02:20:05.493Z,99369.64
2018-05-05T02:22:33.802Z,99366.16
2018-05-05T02:25:02.104Z,99360.02
2018-05-05T02:27:30.399Z,99365.09
2018-05-05T02:29:58.698Z,99367.28
2018-05-05T02:32:27.014Z,99365.19
2018-05-05T02:34:55.323Z,99370.14
2018-05-05T02:37:23.755Z,99369.75
2018-05-05T02:39:52.039Z,99366.58
2018-05-05T02:42:20.364Z,99362.59
2018-05-05T02:44:48.662Z,99362.28
2018-05-05T02:47:16.916Z,99362.34
2018-05-05T02:49:45.250Z,99364.30
2018-05-05T02:52:14.469Z,99352.36
2018-05-05T02:54:42.774Z,99358.38
2018-05-05T02:57:11.053Z,99353.91
2018-05-05T02:59:39.338Z,99360.92
2018-05-05T03:02:07.701Z,99360.73
2018-05-05T03:04:35.893Z,99360.48
2018-05-05T03:07:04.163Z,99359.16
2018-05-05T03:09:32.446Z,99358.36
2018-05-05T03:12:00.712Z,99363.09
2018-05-05T03:14:29.012Z,99363.66
2018-05-05T03:16:57.354Z,99361.73
2018-05-05T03:19:25.663Z,99360.69
2018-05-05T03:21:53.918Z,99351.22
2018-05-05T03:24:22.194Z,99358.75
2018-05-05T03:26:50.566Z,99361.80
2018-05-05T03:29:18.775Z,99362.83
2018-05-05T03:31:47.049Z,99366.05
2018-05-05T03:34:15.325Z,99366.19
2018-05-05T03:36:43.955Z,99369.64
2018-05-05T03:39:12.294Z,99371.73
2018-05-05T03:41:40.570Z,99371.08
2018-05-05T03:44:09.109Z,99378.88
2018-05-05T03:46:38.538Z,99380.89
2018-05-05T03:49:06.812Z,99373.98
2018-05-05T03:51:35.088Z,99378.81
2018-05-05T03:54:03.396Z,99387.48
2018-05-05T03:56:31.726Z,99387.88
2018-05-05T03:59:11.840Z,99375.83
2018-05-05T04:01:52.000Z,99387.59
2018-05-05T04:04:20.272Z,99378.72
2018-05-05T04:06:48.593Z,99387.48
2018-05-05T04:09:16.870Z,99392.56
2018-05-05T04:11:45.152Z,99394.29
2018-05-05T04:14:13.522Z,99398.02
2018-05-05T04:16:41.806Z,99403.05
2018-05-05T04:19:10.081Z,99398.67
2018-05-05T04:21:38.389Z,99400.28
2018-05-05T04:24:06.781Z,99401.05
2018-05-05T04:26:35.040Z,99394.42
2018-05-05T04:29:03.328Z,99394.02
2018-05-05T04:31:31.570Z,99396.14
2018-05-05T04:33:59.861Z,99394.17
2018-05-05T04:36:28.132Z,99405.19
2018-05-05T04:38:56.502Z,99402.13
2018-05-05T04:41:24.757Z,99414.73
2018-05-05T04:43:53.061Z,99406.23
2018-05-05T04:46:21.310Z,99403.58
2018-05-05T04:48:50.090Z,99403.98
2018-05-05T04:51:18.342Z,99407.56
2018-05-05T04:53:46.634Z,99408.37
2018-05-05T04:56:14.910Z,99416.70
2018-05-05T04:58:43.206Z,99413.92
2018-05-05T05:01:11.464Z,99417.77
2018-05-05T05:03:39.862Z,99419.34
2018-05-05T05:06:08.132Z,99421.92
2018-05-05T05:08:36.418Z,99422.56
2018-05-05T05:11:04.698Z,99420.59
2018-05-05T05:13:33.000Z,99416.70
2018-05-05T05:16:01.287Z,99418.30
2018-05-05T05:18:29.550Z,99420.31
2018-05-05T05:20:57.827Z,99423.48
2018-05-05T05:23:26.141Z,99426.91
2018-05-05T05:25:54.476Z,99423.73
2018-05-05T05:28:22.792Z,99419.34
2018-05-05T05:30:51.146Z,99413.63
2018-05-05T05:33:19.421Z,99417.17
2018-05-05T05:35:47.707Z,99420.47
2018-05-05T05:38:16.286Z,99423.52
2018-05-05T05:40:44.748Z,99428.25
2018-05-05T05:43:13.071Z,99418.23
2018-05-05T05:45:41.405Z,99421.42
2018-05-05T05:48:09.664Z,99419.45
2018-05-05T05:50:37.959Z,99422.69
2018-05-05T05:53:06.288Z,99427.34
2018-05-05T05:55:34.578Z,99430.48
2018-05-05T05:58:02.816Z,99435.77
2018-05-05T06:00:31.114Z,99430.68
2018-05-05T06:02:59.375Z,99436.01
2018-05-05T06:05:27.691Z,99441.18
2018-05-05T06:07:56.411Z,99439.95
2018-05-05T06:10:24.747Z,99438.88
2018-05-05T06:12:53.054Z,99437.56
2018-05-05T06:15:21.351Z,99438.44
2018-05-05T06:17:49.666Z,99443.36
2018-05-05T06:20:18.973Z,99452.20
2018-05-05T06:22:47.466Z,99446.37
2018-05-05T06:25:15.719Z,99445.86
2018-05-05T06:27:44.034Z,99448.28
2018-05-05T06:30:12.315Z,99450.75
2018-05-05T06:32:40.606Z,99445.73
2018-05-05T06:35:08.939Z,99453.72
2018-05-05T06:37:37.302Z,99447.22
2018-05-05T06:40:05.563Z,99445.30
2018-05-05T06:42:33.891Z,99454.41
2018-05-05T06:45:02.161Z,99453.81
2018-05-05T06:47:30.553Z,99446.95
2018-05-05T06:50:03.130Z,99460.00
2018-05-05T06:52:39.346Z,99451.23
2018-05-05T06:55:07.755Z,99450.27
2018-05-05T06:57:36.065Z,99448.78
2018-05-05T07:00:04.432Z,99452.52
2018-05-05T07:02:32.681Z,99442.11
2018-05-05T07:05:01.036Z,99447.69
2018-05-05T07:07:29.311Z,99443.58
2018-05-05T07:09:57.657Z,99449.34
2018-05-05T07:12:25.924Z,99437.05
2018-05-05T07:14:54.236Z,99449.86
2018-05-05T07:17:22.578Z,99445.33
2018-05-05T07:19:50.862Z,99454.56
2018-05-05T07:22:19.166Z,99449.69
2018-05-05T07:24:47.461Z,99448.88
2018-05-05T07:27:17.281Z,99444.35
2018-05-05T07:51:20.109Z,99472.52
2018-05-05T07:53:48.483Z,99473.55
2018-05-05T07:56:16.791Z,99440.11
2018-05-05T07:58:45.149Z,99478.96
2018-05-05T08:01:13.523Z,99473.00
2018-05-05T08:03:41.774Z,99471.33
2018-05-05T08:06:10.138Z,99462.16
2018-05-05T08:08:38.462Z,99468.77
2018-05-05T08:11:06.825Z,99467.57
2018-05-05T08:13:35.177Z,99462.31
2018-05-05T08:16:03.484Z,99465.56
2018-05-05T08:18:31.778Z,99468.81
2018-05-05T08:21:00.142Z,99465.60
2018-05-05T08:23:28.483Z,99464.06
2018-05-05T08:25:56.779Z,99467.81
2018-05-05T08:28:25.045Z,99466.16
2018-05-05T08:30:53.334Z,99465.19
2018-05-05T08:33:22.496Z,99468.83
2018-05-05T08:35:50.819Z,99470.42
2018-05-05T08:38:19.908Z,99475.79
2018-05-05T08:40:48.208Z,99448.27
2018-05-05T08:43:16.570Z,99470.39
2018-05-05T08:45:45.468Z,99472.36
2018-05-05T08:48:16.232Z,99470.58
2018-05-05T08:50:45.199Z,99472.34
2018-05-05T08:53:13.594Z,99467.87
2018-05-05T08:55:41.981Z,99460.83
2018-05-05T08:58:10.342Z,99460.61
2018-05-05T09:00:38.653Z,99461.42
2018-05-05T09:03:07.109Z,99466.13
2018-05-05T09:05:35.277Z,99468.16
2018-05-05T09:08:04.511Z,99468.36
2018-05-05T09:10:32.790Z,99460.42
2018-05-05T09:13:01.151Z,99468.27
2018-05-05T09:15:29.438Z,99464.89
2018-05-05T09:17:57.731Z,99460.13
2018-05-05T09:20:26.046Z,99464.02
2018-05-05T09:22:54.320Z,99463.61
2018-05-05T09:25:22.623Z,99461.88
2018-05-05T09:27:51.014Z,99465.38
2018-05-05T09:30:19.199Z,99459.80
2018-05-05T09:32:47.530Z,99464.00
2018-05-05T09:35:15.855Z,99453.55
2018-05-05T09:37:44.115Z,99458.77
2018-05-05T09:40:12.507Z,99455.52
2018-05-05T09:42:41.946Z,99455.58
2018-05-05T09:45:10.262Z,99451.33
2018-05-05T09:47:39.571Z,99451.44
2018-05-05T09:50:08.032Z,99448.41
2018-05-05T09:52:36.283Z,99449.08
2018-05-05T09:55:05.141Z,99443.83
2018-05-05T09:57:33.478Z,99442.37
2018-05-05T10:00:01.807Z,99439.17
2018-05-05T10:02:30.259Z,99425.05
2018-05-05T10:04:58.537Z,99434.39
2018-05-05T10:07:26.776Z,99427.75
2018-05-05T10:09:55.083Z,99432.62
2018-05-05T10:12:23.364Z,99432.16
2018-05-05T10:14:51.694Z,99421.91
2018-05-05T10:17:20.104Z,99421.16
2018-05-05T10:19:48.424Z,99410.35
2018-05-05T10:22:16.908Z,99411.27
2018-05-05T10:24:45.217Z,99410.19
2018-05-05T10:27:13.529Z,99414.37
2018-05-05T10:29:41.818Z,99413.59
2018-05-05T10:32:10.221Z,99409.50
2018-05-05T10:34:38.501Z,99410.36
2018-05-05T10:37:06.802Z,99414.42
2018-05-05T10:39:35.101Z,99415.25
2018-05-05T10:42:03.462Z,99403.59
2018-05-05T10:44:31.732Z,99413.16
2018-05-05T10:47:00.101Z,99410.77
2018-05-05T10:49:28.412Z,99408.44
2018-05-05T10:51:56.773Z,99410.34
2018-05-05T10:54:25.090Z,99407.50
2018-05-05T10:56:53.492Z,99396.08
2018-05-05T10:59:21.755Z,99399.78
2018-05-05T11:01:50.034Z,99389.43
2018-05-05T11:04:18.335Z,99395.41
2018-05-05T11:06:46.630Z,99390.79
2018-05-05T11:09:14.907Z,99389.41
2018-05-05T11:11:43.190Z,99381.95
2018-05-05T11:14:11.544Z,99385.84
2018-05-05T11:16:39.904Z,99384.58
2018-05-05T11:19:08.256Z,99384.25
2018-05-05T11:21:36.521Z,99386.42
2018-05-05T11:24:04.886Z,99388.98
2018-05-05T11:26:33.473Z,99371.93
2018-05-05T11:29:01.795Z,99374.92
2018-05-05T11:31:30.116Z,99377.92
2018-05-05T11:33:58.982Z,99384.66
2018-05-05T11:36:27.290Z,99388.30
2018-05-05T11:38:55.594Z,99383.93
2018-05-05T11:41:24.111Z,99376.23
2018-05-05T11:43:52.461Z,99370.23
2018-05-05T11:46:20.724Z,99382.77
2018-05-05T11:48:49.069Z,99384.59
2018-05-05T11:51:17.352Z,99379.67
2018-05-05T11:53:45.619Z,99383.29
2018-05-05T11:56:14.049Z,99364.22
2018-05-05T11:58:42.188Z,99381.01
2018-05-05T12:01:10.856Z,99375.27
2018-05-05T12:03:39.164Z,99376.04
2018-05-05T12:06:07.487Z,99370.88
2018-05-05T12:08:35.802Z,99371.88
2018-05-05T12:11:04.120Z,99373.42
2018-05-05T12:13:32.468Z,99384.45
2018-05-05T12:16:00.828Z,99377.99
2018-05-05T12:18:29.150Z,99375.20
2018-05-05T12:20:57.565Z,99379.47
2018-05-05T12:23:25.837Z,99374.57
2018-05-05T12:25:54.121Z,99365.16
2018-05-05T12:28:23.133Z,99361.45
2018-05-05T12:30:51.511Z,99357.97
2018-05-05T12:33:19.787Z,99358.86
2018-05-05T12:35:48.167Z,99369.36
2018-05-05T12:38:16.478Z,99367.13
2018-05-05T12:40:45.758Z,99362.27
2018-05-05T12:43:14.062Z,99357.58
2018-05-05T12:45:42.483Z,99348.66
2018-05-05T12:48:12.111Z,99356.46
2018-05-05T12:50:41.588Z,99338.55
2018-05-05T12:53:09.898Z,99357.65
2018-05-05T12:55:38.207Z,99353.61
2018-05-05T12:58:06.560Z,99349.20
2018-05-05T13:00:34.894Z,99358.95
2018-05-05T13:03:03.364Z,99349.84
2018-05-05T13:05:32.399Z,99348.97
2018-05-05T13:08:00.822Z,99346.40
2018-05-05T13:10:29.091Z,99349.33
2018-05-05T13:12:57.391Z,99355.40
2018-05-05T13:15:25.714Z,99351.32
2018-05-05T13:17:54.101Z,99344.80
2018-05-05T13:20:22.379Z,99363.56
2018-05-05T13:22:51.469Z,99359.58
2018-05-05T13:25:19.774Z,99351.90
2018-05-05T13:27:48.088Z,99361.44
2018-05-05T13:30:16.416Z,99359.72
2018-05-05T13:32:44.730Z,99347.52
2018-05-05T13:35:13.067Z,99349.76
2018-05-05T13:37:41.448Z,99341.05
2018-05-05T13:40:09.902Z,99346.56
2018-05-05T13:42:39.000Z,99343.89
2018-05-05T13:45:07.298Z,99339.73
2018-05-05T13:47:35.577Z,99340.26
2018-05-05T13:50:03.908Z,99336.94
2018-05-05T13:52:32.200Z,99342.43
2018-05-05T13:55:00.507Z,99333.38
2018-05-05T13:57:28.873Z,99339.75
2018-05-05T13:59:57.178Z,99343.28
2018-05-05T14:02:25.547Z,99337.83
2018-05-05T14:04:54.033Z,99334.65
2018-05-05T14:07:22.338Z,99328.86
2018-05-05T14:09:50.683Z,99328.98
2018-05-05T14:12:19.127Z,99307.95
2018-05-05T14:14:47.463Z,99314.92
2018-05-05T14:17:15.740Z,99318.23
2018-05-05T14:19:44.467Z,99324.97
2018-05-05T14:22:12.986Z,99304.67
2018-05-05T14:24:42.792Z,99309.27
2018-05-05T14:27:11.202Z,99307.53
2018-05-05T14:29:39.897Z,99303.50
2018-05-05T14:32:08.221Z,99300.95
2018-05-05T14:34:36.595Z,99307.86
2018-05-05T14:37:04.827Z,99316.35
2018-05-05T14:39:33.151Z,99303.47
2018-05-05T14:42:01.495Z,99299.80
2018-05-05T14:44:29.776Z,99289.63
2018-05-05T14:46:58.113Z,99291.66
2018-05-05T14:49:26.407Z,99292.89
2018-05-05T14:51:54.700Z,99291.58
2018-05-05T14:54:22.997Z,99298.31
2018-05-05T14:56:52.213Z,99300.31
2018-05-05T14:59:20.532Z,99297.67
2018-05-05T15:01:49.004Z,99292.22
2018-05-05T15:04:17.745Z,99296.28
2018-05-05T15:06:46.020Z,99296.14
2018-05-05T15:09:14.281Z,99287.73
2018-05-05T15:11:42.619Z,99281.97
2018-05-05T15:14:10.948Z,99292.67
2018-05-05T15:16:39.247Z,99285.45
2018-05-05T15:19:07.555Z,99278.80
2018-05-05T15:21:35.870Z,99285.23
2018-05-05T15:24:04.320Z,99278.46
2018-05-05T15:26:32.561Z,99278.59
2018-05-05T15:29:00.888Z,99277.89
2018-05-05T15:31:29.154Z,99279.53
2018-05-05T15:33:57.452Z,99276.87
2018-05-05T15:36:25.711Z,99278.69
2018-05-05T15:38:54.035Z,99268.27
2018-05-05T15:41:22.310Z,99278.28
2018-05-05T15:43:50.734Z,99281.73
2018-05-05T15:46:19.009Z,99284.95
2018-05-05T15:48:47.299Z,99278.45
2018-05-05T15:51:15.583Z,99284.70
2018-05-05T15:53:44.780Z,99280.34
2018-05-05T15:56:13.157Z,99286.84
2018-05-05T15:58:41.533Z,99272.68
2018-05-05T16:01:09.820Z,99276.13
2018-05-05T16:03:38.088Z,99273.17
2018-05-05T16:06:06.497Z,99287.78
2018-05-05T16:08:34.786Z,99280.45
2018-05-05T16:11:04.193Z,99289.73
2018-05-05T16:13:32.412Z,99282.09
2018-05-05T16:16:00.746Z,99279.88
2018-05-05T16:18:29.008Z,99279.72
2018-05-05T16:20:57.348Z,99272.17
2018-05-05T16:23:26.796Z,99283.52
2018-05-05T16:25:55.110Z,99276.37
2018-05-05T16:28:23.433Z,99275.14
2018-05-05T16:30:51.743Z,99269.14
2018-05-05T16:33:20.065Z,99277.52
2018-05-05T16:35:48.373Z,99276.77
2018-05-05T16:38:16.676Z,99275.77
2018-05-05T16:40:46.033Z,99277.77
2018-05-05T16:43:14.328Z,99277.66
2018-05-05T16:45:42.726Z,99280.45
2018-05-05T16:48:11.050Z,99284.97
2018-05-05T16:50:39.334Z,99275.84
2018-05-05T16:53:08.483Z,99284.02
2018-05-05T16:55:36.748Z,99281.64
2018-05-05T16:58:05.087Z,99285.33
2018-05-05T17:00:33.509Z,99286.14
2018-05-05T17:03:02.008Z,99284.56
2018-05-05T17:05:30.455Z,99280.26
2018-05-05T17:08:00.273Z,99286.11
2018-05-05T17:10:28.727Z,99290.09
2018-05-05T17:12:57.723Z,99290.95
2018-05-05T17:15:26.111Z,99290.61
2018-05-05T17:17:54.428Z,99293.84
2018-05-05T17:20:23.646Z,99294.17
2018-05-05T17:22:51.968Z,99273.54
2018-05-05T17:25:20.603Z,99291.41
2018-05-05T17:27:49.004Z,99293.05
2018-05-05T17:30:17.349Z,99293.03
2018-05-05T17:32:45.614Z,99290.60
2018-05-05T17:35:14.729Z,99290.38
2018-05-05T17:37:43.087Z,99295.45
2018-05-05T17:40:11.393Z,99289.89
2018-05-05T17:42:39.733Z,99294.03
2018-05-05T17:45:08.088Z,99279.45
2018-05-05T17:47:36.790Z,99292.23
2018-05-05T17:50:05.111Z,99293.20
2018-05-05T17:52:33.902Z,99288.75
2018-05-05T17:55:02.222Z,99292.25
2018-05-05T17:57:30.508Z,99297.75
2018-05-05T17:59:58.792Z,99296.44
2018-05-05T18:02:27.066Z,99295.60
2018-05-05T18:04:55.365Z,99294.19
2018-05-05T18:07:23.727Z,99302.59
2018-05-05T18:09:52.048Z,99305.88
2018-05-05T18:12:20.485Z,99295.71
2018-05-05T18:14:48.873Z,99307.56
2018-05-05T18:17:17.138Z,99316.20
2018-05-05T18:19:47.174Z,99313.49
2018-05-05T18:22:15.470Z,99311.10
2018-05-05T18:24:43.755Z,99321.72
2018-05-05T18:27:12.001Z,99317.98
2018-05-05T18:29:40.427Z,99314.88
2018-05-05T18:32:08.837Z,99317.34
2018-05-05T18:34:37.101Z,99326.36
2018-05-05T18:37:05.302Z,99330.47
2018-05-05T18:39:33.670Z,99329.67
2018-05-05T18:42:01.987Z,99327.92
2018-05-05T18:44:30.304Z,99335.08
2018-05-05T18:46:58.730Z,99333.84
2018-05-05T18:49:27.012Z,99341.60
2018-05-05T18:51:55.331Z,99333.66
2018-05-05T18:54:23.636Z,99338.30
2018-05-05T18:57:33.670Z,99333.79
2018-05-05T19:00:02.015Z,99342.91
2018-05-05T19:02:30.806Z,99347.42
2018-05-05T19:04:59.048Z,99353.98
2018-05-05T19:07:27.427Z,99352.59
2018-05-05T19:09:55.765Z,99354.70
2018-05-05T19:12:24.167Z,99356.95
2018-05-05T19:14:52.467Z,99366.69
2018-05-05T19:17:21.153Z,99365.05
2018-05-05T19:19:49.524Z,99364.86
2018-05-05T19:22:17.836Z,99370.44
2018-05-05T19:24:46.206Z,99372.54
2018-05-05T19:27:15.485Z,99375.33
2018-05-05T19:29:43.757Z,99372.48
2018-05-05T19:32:12.164Z,99374.38
2018-05-05T19:34:40.458Z,99380.50
2018-05-05T19:37:08.735Z,99379.32
2018-05-05T19:39:37.632Z,99382.80
2018-05-05T19:42:06.031Z,99377.48
2018-05-05T19:44:35.357Z,99379.92
2018-05-05T19:47:03.770Z,99370.70
2018-05-05T19:49:32.634Z,99375.80
2018-05-05T19:52:00.940Z,99381.32
2018-05-05T19:54:30.223Z,99384.97
2018-05-05T19:56:59.429Z,99379.53
2018-05-05T19:59:27.726Z,99393.20
2018-05-05T20:01:56.036Z,99388.73
2018-05-05T20:04:25.121Z,99395.34
2018-05-05T20:06:53.470Z,99391.39
2018-05-05T20:09:21.794Z,99401.48
2018-05-05T20:11:50.149Z,99400.76
2018-05-05T20:14:18.489Z,99405.17
2018-05-05T20:16:46.790Z,99406.92
2018-05-05T20:19:15.208Z,99409.01
2018-05-05T20:21:43.514Z,99401.77
2018-05-05T20:24:11.768Z,99407.53
2018-05-05T20:26:40.025Z,99412.98
2018-05-05T20:29:08.343Z,99402.57
2018-05-05T20:31:36.652Z,99418.69
2018-05-05T20:34:04.961Z,99418.88
2018-05-05T20:36:34.194Z,99427.04
2018-05-05T20:39:02.521Z,99418.45
2018-05-05T20:41:30.805Z,99426.98
2018-05-05T20:43:59.195Z,99425.58
2018-05-05T20:46:27.508Z,99426.34
2018-05-05T20:49:01.254Z,99421.31
2018-05-05T21:09:33.293Z,99448.84
2018-05-05T21:12:01.584Z,99439.11
2018-05-05T21:14:29.893Z,99441.72
2018-05-05T21:16:58.151Z,99455.00
2018-05-05T21:19:26.421Z,99451.38
2018-05-05T21:21:54.700Z,99453.66
2018-05-05T21:24:22.984Z,99455.62
2018-05-05T21:26:52.287Z,99457.14
2018-05-05T21:29:20.575Z,99455.22
2018-05-05T21:31:48.912Z,99460.98
2018-05-05T21:34:17.205Z,99461.77
2018-05-05T21:36:45.502Z,99465.23
2018-05-05T21:39:13.757Z,99471.82
2018-05-05T21:41:42.059Z,99474.42
2018-05-05T21:44:10.320Z,99476.56
2018-05-05T21:46:38.582Z,99470.09
2018-05-05T21:49:06.916Z,99475.99
2018-05-05T21:51:35.235Z,99478.95
2018-05-05T21:54:03.569Z,99472.44
2018-05-05T21:56:31.909Z,99472.52
2018-05-05T21:59:00.195Z,99477.63
2018-05-05T22:01:28.469Z,99466.83
2018-05-05T22:03:56.828Z,99472.15
2018-05-05T22:06:25.138Z,99473.91
2018-05-05T22:08:53.460Z,99471.27
2018-05-05T22:11:22.003Z,99473.88
2018-05-05T22:13:50.361Z,99474.57
2018-05-05T22:16:18.757Z,99471.25
2018-05-05T22:18:47.180Z,99469.52
2018-05-05T22:21:15.480Z,99469.47
2018-05-05T22:23:43.942Z,99469.20
2018-05-05T22:26:12.261Z,99471.46
2018-05-05T22:28:40.582Z,99471.88
2018-05-05T22:31:08.877Z,99472.32
2018-05-05T22:33:37.125Z,99472.47
2018-05-05T22:36:05.407Z,99470.92
2018-05-05T22:38:33.880Z,99466.40
2018-05-05T22:41:02.261Z,99467.51
2018-05-05T22:43:30.542Z,99468.08
2018-05-05T22:45:59.320Z,99453.77
2018-05-05T22:48:27.571Z,99465.77
2018-05-05T22:50:55.862Z,99470.58
2018-05-05T22:53:24.234Z,99459.86
2018-05-05T22:55:52.563Z,99469.84
2018-05-05T22:58:20.835Z,99468.31
2018-05-05T23:00:49.175Z,99466.77
2018-05-05T23:03:17.443Z,99462.66
2018-05-05T23:05:45.716Z,99463.76
2018-05-05T23:08:14.010Z,99466.07
2018-05-05T23:10:42.373Z,99467.09
2018-05-05T23:13:10.735Z,99465.34
2018-05-05T23:15:39.028Z,99464.00
2018-05-05T23:18:07.375Z,99460.31
2018-05-05T23:20:36.031Z,99462.03
2018-05-05T23:23:04.373Z,99449.55
2018-05-05T23:25:32.701Z,99457.59
2018-05-05T23:28:01.035Z,99458.61
2018-05-05T23:30:30.394Z,99461.52
2018-05-05T23:32:59.037Z,99452.77
2018-05-05T23:35:27.301Z,99450.78
2018-05-05T23:37:56.381Z,99456.34
2018-05-05T23:40:24.650Z,99436.24
2018-05-05T23:42:52.970Z,99452.92
2018-05-05T23:45:21.265Z,99458.17
2018-05-05T23:47:49.574Z,99457.28
2018-05-05T23:50:17.892Z,99455.55
2018-05-05T23:52:46.241Z,99456.80
2018-05-05T23:55:14.517Z,99455.10
2018-05-05T23:57:42.798Z,99444.36
